CYCG

Castlegar / West Kootenay Regional Airport

Castlegar, British Columbia, Canada
METAR CYCG 221423Z 02005KT 340V040 15SM FEW002 BKN012 03/02 A3017 RMK CF2SF3 VIS 5 S SLP230
Observed Flight Rules
Oct-22 @ 14:23 UTC (18 minutes ago) Marginal Visual Flight Rules
Wind Visibility Clouds
20° at 5 knots 15 miles
  • Few at 200' AGL
  • Broken at 1,200' AGL
Temperatures Readings
Current 3°C / 37°F
Dewpoint 2°C / 36°F
Humidity 93%
Altimeter 30.17" Hg
Pressure 1023 hPa
Elevation 495
METAR CYCG 221423Z 02005KT 340V040 15SM FEW002 BKN012 03/02 A3017 RMK CF2SF3 VIS 5 S SLP230
Observed Flight Rules
Oct-22 @ 14:23 UTC
(18 minutes ago)
MVFR
Wind Visibility
20° at 5 knots 15 miles
Clouds
  • Few at 200' AGL
  • Broken at 1,200' AGL
Temperature Dewpoint
3°C / 37°F 2°C / 36°F
Humidity Altimeter Pressure
93% 30.17" Hg 1023 hPa